createdAt,value
2023-03-26T00:00:19.864Z,98157.47
2023-03-26T00:01:24.552Z,98161.47
2023-03-26T00:02:29.856Z,98158.72
2023-03-26T00:03:37.462Z,98167.59
2023-03-26T00:04:39.180Z,98162.41
2023-03-26T00:05:41.166Z,98170.56
2023-03-26T00:06:42.912Z,98167.59
2023-03-26T00:07:44.639Z,98177.72
2023-03-26T00:08:46.500Z,98165.75
2023-03-26T00:09:48.606Z,98171.34
2023-03-26T00:10:50.422Z,98162.28
2023-03-26T00:11:52.180Z,98174.09
2023-03-26T00:12:53.942Z,98178.34
2023-03-26T00:13:59.793Z,98173.88
2023-03-26T00:15:01.483Z,98167.41
2023-03-26T00:16:03.967Z,98165.34
2023-03-26T00:17:05.707Z,98174.19
2023-03-26T00:18:09.346Z,98170.00
2023-03-26T00:19:11.786Z,98175.06
2023-03-26T00:20:14.203Z,98165.53
2023-03-26T00:21:17.924Z,98171.16
2023-03-26T00:22:19.672Z,98167.13
2023-03-26T00:23:21.375Z,98158.88
2023-03-26T00:24:29.571Z,98171.97
2023-03-26T00:25:32.199Z,98183.94
2023-03-26T00:26:35.621Z,98174.72
2023-03-26T00:27:38.223Z,98175.75
2023-03-26T00:28:42.267Z,98175.53
2023-03-26T00:29:44.040Z,98167.56
2023-03-26T00:30:46.082Z,98166.75
2023-03-26T00:31:47.871Z,98151.25
2023-03-26T00:32:53.473Z,98168.09
2023-03-26T00:33:55.927Z,98125.16
2023-03-26T00:34:58.260Z,98164.19
2023-03-26T00:36:03.923Z,98167.63
2023-03-26T00:37:06.140Z,98150.88
2023-03-26T00:38:07.946Z,98147.25
2023-03-26T00:39:10.243Z,98152.78
2023-03-26T00:40:12.587Z,98146.69
2023-03-26T00:41:22.815Z,98148.38
2023-03-26T00:42:24.662Z,98129.97
2023-03-26T00:43:26.652Z,98147.34
2023-03-26T00:44:28.352Z,98142.63
2023-03-26T00:45:30.079Z,98137.56
2023-03-26T00:46:32.485Z,98141.53
2023-03-26T00:47:34.803Z,98140.44
2023-03-26T00:48:44.886Z,98137.56
2023-03-26T00:49:48.935Z,98137.31
2023-03-26T00:50:50.974Z,98138.91
2023-03-26T00:51:53.181Z,98126.06
2023-03-26T00:52:55.981Z,98123.97
2023-03-26T00:53:58.586Z,98119.88
2023-03-26T00:55:00.347Z,98123.81
2023-03-26T00:56:02.051Z,98116.81
2023-03-26T00:57:06.896Z,98119.47
2023-03-26T00:58:12.456Z,98123.72
2023-03-26T00:59:14.193Z,98124.84
2023-03-26T01:00:19.082Z,98126.06
2023-03-26T01:01:29.407Z,98134.09
2023-03-26T01:02:33.010Z,98121.31
2023-03-26T01:03:38.567Z,98137.47
2023-03-26T01:04:40.692Z,98126.06
2023-03-26T01:05:45.558Z,98136.50
2023-03-26T01:06:47.294Z,98129.69
2023-03-26T01:07:49.247Z,98136.03
2023-03-26T01:08:53.004Z,98140.84
2023-03-26T01:10:00.008Z,98136.59
2023-03-26T01:11:07.495Z,98128.63
2023-03-26T01:12:16.981Z,98134.19
2023-03-26T01:13:24.465Z,98135.56
2023-03-26T01:14:29.074Z,98133.13
2023-03-26T01:15:30.882Z,98138.09
2023-03-26T01:16:42.063Z,98140.53
2023-03-26T01:17:43.678Z,98145.34
2023-03-26T01:18:46.033Z,98155.75
2023-03-26T01:20:13.170Z,98160.69
2023-03-26T01:21:22.856Z,98171.53
2023-03-26T01:22:27.389Z,98173.59
2023-03-26T01:23:42.671Z,98178.84
2023-03-26T01:24:46.328Z,98178.16
2023-03-26T01:25:58.179Z,98159.13
2023-03-26T01:27:20.934Z,98179.38
2023-03-26T01:28:25.372Z,98185.16
2023-03-26T01:29:32.512Z,98180.09
2023-03-26T01:30:51.966Z,98181.69
2023-03-26T01:32:11.993Z,98187.00
2023-03-26T01:33:36.718Z,98178.97
2023-03-26T01:34:54.310Z,98178.97
2023-03-26T01:36:23.714Z,98193.09
2023-03-26T01:37:52.698Z,98191.13
2023-03-26T01:39:01.209Z,98183.47
2023-03-26T01:40:10.146Z,98194.16
2023-03-26T01:41:25.610Z,98199.88
2023-03-26T01:42:36.134Z,98189.97
2023-03-26T01:44:15.475Z,98202.25
2023-03-26T01:45:23.924Z,98198.88
2023-03-26T01:46:27.307Z,98201.13
2023-03-26T01:47:30.058Z,98199.03
2023-03-26T01:48:43.412Z,98200.97
2023-03-26T01:49:45.142Z,98209.47
2023-03-26T01:50:48.780Z,98200.00
2023-03-26T01:51:51.356Z,98202.50
2023-03-26T01:52:53.056Z,98206.81
2023-03-26T01:53:56.691Z,98195.63
2023-03-26T01:54:58.838Z,98207.69
2023-03-26T01:56:41.750Z,98215.44
2023-03-26T01:57:55.219Z,98206.66
2023-03-26T01:59:17.889Z,98214.09
2023-03-26T02:00:19.677Z,98211.22
2023-03-26T02:01:45.200Z,98206.16
2023-03-26T02:02:55.102Z,98207.53
2023-03-26T02:04:30.871Z,98208.00
2023-03-26T02:05:41.734Z,98205.91
2023-03-26T02:07:08.045Z,98203.25
2023-03-26T02:08:35.547Z,98198.50
2023-03-26T02:09:45.981Z,98196.09
2023-03-26T02:10:55.104Z,98191.28
2023-03-26T02:11:58.516Z,98195.00
2023-03-26T02:13:00.916Z,98188.09
2023-03-26T02:14:05.549Z,98191.94
2023-03-26T02:15:07.958Z,98192.72
2023-03-26T02:16:16.610Z,98194.16
2023-03-26T02:17:19.249Z,98184.53
2023-03-26T02:18:24.332Z,98191.75
2023-03-26T02:19:26.380Z,98190.13
2023-03-26T02:20:31.159Z,98201.31
2023-03-26T02:21:34.246Z,98201.06
2023-03-26T02:22:41.110Z,98190.94
2023-03-26T02:23:47.222Z,98201.06
2023-03-26T02:24:49.026Z,98190.13
2023-03-26T02:25:50.742Z,98157.22
2023-03-26T02:26:52.571Z,98183.72
2023-03-26T02:27:54.442Z,98187.00
2023-03-26T02:28:56.892Z,98193.34
2023-03-26T02:29:58.581Z,98185.94
2023-03-26T02:31:02.059Z,98178.19
2023-03-26T02:32:08.286Z,98186.44
2023-03-26T02:33:10.083Z,98167.81
2023-03-26T02:34:11.878Z,98182.16
2023-03-26T02:35:13.889Z,98186.44
2023-03-26T02:36:18.076Z,98191.75
2023-03-26T02:37:20.013Z,98188.47
2023-03-26T02:38:25.359Z,98182.84
2023-03-26T02:39:27.808Z,98191.19
2023-03-26T02:40:29.521Z,98197.03
2023-03-26T02:41:31.217Z,98192.31
2023-03-26T02:42:33.130Z,98200.03
2023-03-26T02:43:34.824Z,98189.28
2023-03-26T02:44:38.857Z,98202.53
2023-03-26T02:45:40.880Z,98206.81
2023-03-26T02:46:42.620Z,98212.97
2023-03-26T02:47:46.269Z,98212.97
2023-03-26T02:48:48.079Z,98211.34
2023-03-26T02:49:49.775Z,98218.78
2023-03-26T02:50:54.682Z,98209.78
2023-03-26T02:51:57.112Z,98208.31
2023-03-26T02:52:59.057Z,98218.47
2023-03-26T02:54:04.312Z,98223.81
2023-03-26T02:55:06.562Z,98220.38
2023-03-26T02:56:09.521Z,98223.53
2023-03-26T02:57:11.362Z,98221.97
2023-03-26T02:58:17.404Z,98217.47
2023-03-26T02:59:19.217Z,98220.94
2023-03-26T03:00:22.849Z,98222.28
2023-03-26T03:01:24.687Z,98209.22
2023-03-26T03:02:29.475Z,98225.13
2023-03-26T03:03:31.366Z,98233.94
2023-03-26T03:04:33.097Z,98224.16
2023-03-26T03:05:35.277Z,98224.38
2023-03-26T03:06:38.551Z,98228.41
2023-03-26T03:07:41.521Z,98232.59
2023-03-26T03:08:46.113Z,98244.50
2023-03-26T03:09:50.816Z,98237.34
2023-03-26T03:11:07.181Z,98250.63
2023-03-26T03:12:08.915Z,98237.84
2023-03-26T03:13:10.681Z,98225.53
2023-03-26T03:14:12.456Z,98251.09
2023-03-26T03:15:14.291Z,98242.56
2023-03-26T03:16:16.657Z,98244.41
2023-03-26T03:17:20.888Z,98248.69
2023-03-26T03:18:22.660Z,98251.56
2023-03-26T03:19:24.368Z,98249.72
2023-03-26T03:20:26.129Z,98252.38
2023-03-26T03:21:29.271Z,98245.94
2023-03-26T03:22:30.981Z,98251.50
2023-03-26T03:23:32.734Z,98247.72
2023-03-26T03:24:34.432Z,98253.03
2023-03-26T03:25:36.311Z,98236.22
2023-03-26T03:26:38.102Z,98236.88
2023-03-26T03:27:41.397Z,98238.06
2023-03-26T03:28:45.251Z,98252.31
2023-03-26T03:29:47.070Z,98245.22
2023-03-26T03:30:49.122Z,98238.97
2023-03-26T03:31:51.006Z,98259.47
2023-03-26T03:32:52.745Z,98256.00
2023-03-26T03:33:54.488Z,98250.63
2023-03-26T03:34:56.560Z,98264.13
2023-03-26T03:35:59.498Z,98267.56
2023-03-26T03:37:01.258Z,98249.41
2023-03-26T03:38:02.957Z,98265.25
2023-03-26T03:39:05.293Z,98265.16
2023-03-26T03:40:10.886Z,98261.69
2023-03-26T03:41:12.657Z,98272.13
2023-03-26T03:42:14.407Z,98254.31
2023-03-26T03:43:16.101Z,98264.44
2023-03-26T03:44:17.850Z,98265.16
2023-03-26T03:45:19.674Z,98274.72
2023-03-26T03:46:21.453Z,98274.38
2023-03-26T03:47:23.312Z,98271.41
2023-03-26T03:48:25.013Z,98274.38
2023-03-26T03:49:26.792Z,98277.28
2023-03-26T03:50:28.535Z,98280.63
2023-03-26T03:51:30.460Z,98281.81
2023-03-26T03:52:32.531Z,98278.91
2023-03-26T03:53:37.367Z,98285.25
2023-03-26T03:54:39.243Z,98278.16
2023-03-26T03:55:42.202Z,98278.16
2023-03-26T03:56:45.817Z,98288.53
2023-03-26T03:57:47.656Z,98279.78
2023-03-26T03:58:49.378Z,98288.31
2023-03-26T03:59:51.112Z,98279.91
2023-03-26T04:00:53.194Z,98285.19
2023-03-26T04:01:54.936Z,98284.75
2023-03-26T04:02:58.046Z,98295.34
2023-03-26T04:04:00.176Z,98288.88
2023-03-26T04:05:03.549Z,98289.47
2023-03-26T04:06:11.172Z,98293.38
2023-03-26T04:07:12.927Z,98292.84
2023-03-26T04:08:14.614Z,98307.13
2023-03-26T04:09:16.340Z,98300.91
2023-03-26T04:10:18.093Z,98299.19
2023-03-26T04:11:19.850Z,98315.38
2023-03-26T04:12:21.571Z,98312.19
2023-03-26T04:13:23.339Z,98315.38
2023-03-26T04:14:25.035Z,98295.28
2023-03-26T04:15:26.768Z,98308.16
2023-03-26T04:16:28.738Z,98310.72
2023-03-26T04:17:32.857Z,98325.09
2023-03-26T04:18:34.887Z,98307.16
2023-03-26T04:19:37.537Z,98316.00
2023-03-26T04:20:46.487Z,98315.19
2023-03-26T04:21:49.616Z,98330.28
2023-03-26T04:22:51.335Z,98322.56
2023-03-26T04:23:54.378Z,98324.69
2023-03-26T04:24:56.082Z,98331.56
2023-03-26T04:26:04.235Z,98331.25
2023-03-26T04:27:09.986Z,98331.69
2023-03-26T06:06:17.876Z,98437.44
2023-03-26T06:07:20.052Z,98458.44
2023-03-26T06:08:22.376Z,98457.22
2023-03-26T06:09:24.107Z,98452.47
2023-03-26T06:10:26.110Z,98457.88
2023-03-26T06:11:27.806Z,98457.56
2023-03-26T06:12:29.619Z,98468.69
2023-03-26T06:13:31.363Z,98465.91
2023-03-26T06:14:33.298Z,98471.94
2023-03-26T06:15:35.357Z,98469.56
2023-03-26T06:16:37.241Z,98460.81
2023-03-26T06:17:39.075Z,98472.59
2023-03-26T06:18:41.193Z,98473.66
2023-03-26T06:19:42.955Z,98466.09
2023-03-26T06:20:44.761Z,98466.91
2023-03-26T06:21:46.570Z,98468.03
2023-03-26T06:22:48.306Z,98469.00
2023-03-26T06:23:51.761Z,98471.66
2023-03-26T06:24:53.703Z,98471.28
2023-03-26T06:25:56.220Z,98482.53
2023-03-26T06:26:57.965Z,98476.19
2023-03-26T06:27:59.692Z,98482.34
2023-03-26T06:29:01.532Z,98462.88
2023-03-26T06:30:03.474Z,98482.72
2023-03-26T06:31:05.704Z,98474.50
2023-03-26T06:32:19.074Z,98475.31
2023-03-26T06:33:24.144Z,98468.19
2023-03-26T06:34:26.487Z,98475.19
2023-03-26T06:35:30.004Z,98466.38
2023-03-26T06:36:31.743Z,98463.19
2023-03-26T06:37:33.467Z,98461.28
2023-03-26T06:38:35.215Z,98460.81
2023-03-26T06:39:37.044Z,98457.69
2023-03-26T06:40:38.911Z,98450.56
2023-03-26T06:41:41.314Z,98454.81
2023-03-26T06:43:07.816Z,98447.34
2023-03-26T06:44:04.734Z,98450.56
2023-03-26T06:45:07.180Z,98450.00
2023-03-26T06:46:09.376Z,98452.69
2023-03-26T06:47:11.310Z,98453.50
2023-03-26T06:48:13.021Z,98457.78
2023-03-26T06:49:14.711Z,98456.47
2023-03-26T06:50:16.523Z,98450.31
2023-03-26T06:51:21.513Z,98443.09
2023-03-26T06:52:23.248Z,98445.75
2023-03-26T06:53:25.009Z,98458.31
2023-03-26T06:54:27.665Z,98442.56
2023-03-26T06:55:29.433Z,98451.69
2023-03-26T06:56:31.215Z,98453.28
2023-03-26T06:57:33.029Z,98459.16
2023-03-26T06:58:35.262Z,98453.28
2023-03-26T06:59:36.948Z,98458.63
2023-03-26T07:00:39.206Z,98454.34
2023-03-26T07:01:41.007Z,98465.00
2023-03-26T07:02:42.791Z,98467.69
2023-03-26T07:03:44.579Z,98460.41
2023-03-26T07:04:46.376Z,98464.94
2023-03-26T07:05:48.572Z,98462.25
2023-03-26T07:06:50.357Z,98471.34
2023-03-26T07:07:52.055Z,98480.63
2023-03-26T07:08:55.585Z,98484.16
2023-03-26T07:09:57.279Z,98479.06
2023-03-26T07:10:59.017Z,98478.25
2023-03-26T07:12:01.331Z,98473.22
2023-03-26T07:13:03.092Z,98482.56
2023-03-26T07:14:04.829Z,98483.44
2023-03-26T07:15:08.408Z,98490.69
2023-03-26T07:16:10.119Z,98499.50
2023-03-26T07:17:11.856Z,98482.31
2023-03-26T07:18:13.571Z,98493.47
2023-03-26T07:19:15.305Z,98492.06
2023-03-26T07:20:17.062Z,98498.75
2023-03-26T07:21:19.970Z,98505.41
2023-03-26T07:22:24.453Z,98515.56
2023-03-26T07:23:26.506Z,98501.69
2023-03-26T07:24:29.906Z,98494.25
2023-03-26T07:25:32.120Z,98505.50
2023-03-26T07:26:48.132Z,98499.88
2023-03-26T07:27:55.547Z,98493.94
2023-03-26T07:29:16.138Z,98490.22
2023-03-26T07:30:25.441Z,98497.59
2023-03-26T07:31:34.941Z,98501.31
2023-03-26T07:32:52.767Z,98482.78
2023-03-26T07:34:22.526Z,98479.59
2023-03-26T07:35:32.666Z,98491.94
2023-03-26T07:37:02.329Z,98482.28
2023-03-26T07:38:23.336Z,98477.84
2023-03-26T07:39:49.865Z,98477.56
2023-03-26T07:41:01.340Z,98481.59
2023-03-26T07:42:27.005Z,98475.81
2023-03-26T07:43:48.356Z,98485.63
2023-03-26T07:45:03.217Z,98488.56
2023-03-26T07:46:05.741Z,98475.84
2023-03-26T07:47:33.054Z,98487.53
2023-03-26T07:48:44.010Z,98472.34
2023-03-26T07:49:49.288Z,98466.75
2023-03-26T07:50:51.446Z,98472.72
2023-03-26T07:51:53.417Z,98472.13
2023-03-26T07:52:55.540Z,98460.97
2023-03-26T07:54:00.612Z,98466.44
2023-03-26T07:55:03.613Z,98462.75
2023-03-26T07:56:11.445Z,98466.53
2023-03-26T07:57:28.571Z,98467.88
2023-03-26T07:58:45.551Z,98468.78
2023-03-26T07:59:59.798Z,98466.03
2023-03-26T08:01:12.309Z,98466.00
2023-03-26T08:02:32.803Z,98467.47
2023-03-26T08:03:40.339Z,98456.25
2023-03-26T08:05:10.622Z,98462.72
2023-03-26T08:06:22.401Z,98457.94
2023-03-26T08:07:27.149Z,98460.38
2023-03-26T08:08:38.293Z,98456.38
2023-03-26T08:09:53.833Z,98456.78
2023-03-26T08:10:58.600Z,98466.22
2023-03-26T08:12:42.739Z,98452.69
2023-03-26T08:14:01.181Z,98459.75
2023-03-26T08:15:21.902Z,98451.28
2023-03-26T08:16:49.772Z,98448.97
2023-03-26T08:18:04.165Z,98448.16
2023-03-26T08:19:27.796Z,98444.78
2023-03-26T08:20:41.678Z,98438.97
2023-03-26T08:21:53.676Z,98442.22
2023-03-26T08:23:17.210Z,98438.81
2023-03-26T08:24:39.291Z,98445.13
2023-03-26T08:25:44.769Z,98441.78
2023-03-26T08:26:58.501Z,98441.56
2023-03-26T08:28:06.492Z,98447.22
2023-03-26T08:29:29.327Z,98446.06
2023-03-26T08:30:31.525Z,98440.34
2023-03-26T08:31:36.651Z,98452.16
2023-03-26T08:32:38.876Z,98442.38
2023-03-26T08:33:40.987Z,98441.31
2023-03-26T08:34:42.712Z,98438.47
2023-03-26T08:35:46.153Z,98444.63
2023-03-26T08:36:47.920Z,98427.13
2023-03-26T08:37:49.706Z,98428.59
2023-03-26T08:38:51.870Z,98436.63
2023-03-26T08:39:54.228Z,98434.53
2023-03-26T08:41:01.703Z,98440.88
2023-03-26T08:42:24.274Z,98430.22
2023-03-26T08:44:13.893Z,98428.50
2023-03-26T08:45:36.704Z,98427.91
2023-03-26T08:46:38.380Z,98426.78
2023-03-26T08:48:04.854Z,98422.00
2023-03-26T08:49:29.588Z,98431.94
2023-03-26T08:50:34.156Z,98420.63
2023-03-26T08:52:11.996Z,98414.88
2023-03-26T08:53:35.226Z,98419.59
2023-03-26T08:55:13.930Z,98411.38
2023-03-26T08:56:27.764Z,98416.88
2023-03-26T08:57:47.989Z,98423.88
2023-03-26T08:59:01.490Z,98421.94
2023-03-26T09:00:34.354Z,98422.34
2023-03-26T09:02:16.483Z,98427.34
2023-03-26T09:03:21.346Z,98421.47
2023-03-26T09:04:34.995Z,98415.91
2023-03-26T09:05:56.648Z,98422.09
2023-03-26T09:07:36.651Z,98418.72
2023-03-26T09:08:53.813Z,98422.53
2023-03-26T09:09:56.230Z,98422.78
2023-03-26T09:11:13.009Z,98419.56
2023-03-26T09:12:32.487Z,98413.97
2023-03-26T09:13:52.521Z,98417.06
2023-03-26T09:15:09.170Z,98409.56
2023-03-26T09:16:30.209Z,98405.69
2023-03-26T09:18:03.246Z,98405.31
2023-03-26T09:19:07.799Z,98406.72
2023-03-26T09:20:39.627Z,98401.91
2023-03-26T09:22:06.036Z,98394.22
2023-03-26T09:23:07.662Z,98393.31
2023-03-26T09:24:46.887Z,98403.06
2023-03-26T09:25:48.613Z,98398.31
2023-03-26T09:27:15.965Z,98393.53
2023-03-26T09:29:06.699Z,98401.28
2023-03-26T09:30:26.785Z,98394.16
2023-03-26T09:31:58.100Z,98388.91
2023-03-26T09:33:09.938Z,98387.50
2023-03-26T09:35:05.089Z,98378.41
2023-03-26T09:36:29.845Z,98393.44
2023-03-26T09:37:57.024Z,98389.72
2023-03-26T09:39:00.972Z,98381.13
2023-03-26T09:40:22.808Z,98389.94
2023-03-26T09:41:37.418Z,98376.75
2023-03-26T09:42:56.598Z,98362.97
2023-03-26T09:44:20.050Z,98376.75
2023-03-26T09:45:39.528Z,98365.22
2023-03-26T09:47:00.460Z,98371.59
2023-03-26T09:48:29.886Z,98376.38
2023-03-26T09:49:53.056Z,98369.16
2023-03-26T09:51:27.812Z,98372.09
2023-03-26T09:52:35.457Z,98362.41
2023-03-26T09:53:55.528Z,98360.63
2023-03-26T09:54:57.171Z,98369.28
2023-03-26T09:56:16.198Z,98367.69
2023-03-26T09:57:43.858Z,98364.63
2023-03-26T09:58:57.002Z,98362.44
2023-03-26T10:00:37.740Z,98371.56
2023-03-26T10:01:42.635Z,98376.00
2023-03-26T10:03:13.877Z,98375.03
2023-03-26T10:04:41.316Z,98372.56
2023-03-26T10:05:55.400Z,98363.81
2023-03-26T10:07:06.129Z,98362.53
2023-03-26T10:08:23.624Z,98356.78
2023-03-26T10:09:41.446Z,98373.69
2023-03-26T10:11:16.886Z,98357.50
2023-03-26T10:12:50.154Z,98365.69
2023-03-26T10:14:21.614Z,98360.00
2023-03-26T10:15:25.104Z,98357.00
2023-03-26T10:16:48.790Z,98356.00
2023-03-26T10:17:57.288Z,98361.06
2023-03-26T10:19:24.526Z,98346.88
2023-03-26T10:20:35.493Z,98349.63
2023-03-26T10:21:37.072Z,98355.09
2023-03-26T10:22:44.015Z,98359.38
2023-03-26T10:24:07.120Z,98355.75
2023-03-26T10:25:21.202Z,98352.28
2023-03-26T10:26:37.251Z,98347.50
2023-03-26T10:28:09.896Z,98349.72
2023-03-26T10:29:38.871Z,98357.31
2023-03-26T10:31:16.080Z,98348.78
2023-03-26T10:32:34.594Z,98346.00
2023-03-26T10:33:49.558Z,98339.19
2023-03-26T10:35:08.245Z,98340.91
2023-03-26T10:36:35.800Z,98344.53
2023-03-26T10:37:46.460Z,98336.78
2023-03-26T10:39:36.961Z,98337.59
2023-03-26T10:40:43.225Z,98332.06
2023-03-26T10:41:53.856Z,98333.78
2023-03-26T10:43:29.951Z,98323.63
2023-03-26T10:45:10.381Z,98333.66
2023-03-26T10:46:20.770Z,98324.28
2023-03-26T10:47:49.761Z,98327.94
2023-03-26T10:49:28.753Z,98328.88
2023-03-26T10:50:48.935Z,98318.25
2023-03-26T10:51:53.779Z,98314.91
2023-03-26T10:53:34.929Z,98313.63
2023-03-26T10:54:46.651Z,98316.03
2023-03-26T10:55:54.828Z,98327.81
2023-03-26T10:56:57.552Z,98325.91
2023-03-26T10:58:22.212Z,98321.91
2023-03-26T10:59:27.547Z,98306.47
2023-03-26T11:00:30.178Z,98309.34
2023-03-26T11:01:51.538Z,98321.75
2023-03-26T11:03:11.677Z,98321.25
2023-03-26T11:04:19.480Z,98326.53
2023-03-26T11:05:28.189Z,98305.84
2023-03-26T11:06:35.683Z,98321.41
2023-03-26T11:07:44.857Z,98320.78
2023-03-26T11:09:20.008Z,98311.25
2023-03-26T11:10:40.120Z,98325.56
2023-03-26T11:11:55.440Z,98326.03
2023-03-26T11:13:13.658Z,98308.34
2023-03-26T11:14:34.761Z,98301.34
2023-03-26T11:15:39.451Z,98302.88
2023-03-26T11:17:14.807Z,98303.16
2023-03-26T11:18:50.436Z,98308.31
2023-03-26T11:20:23.199Z,98295.41
2023-03-26T11:21:29.607Z,98295.69
2023-03-26T11:23:00.800Z,98296.63
2023-03-26T11:24:04.887Z,98297.69
2023-03-26T11:25:38.485Z,98277.19
2023-03-26T11:27:15.200Z,98271.63
2023-03-26T11:28:37.459Z,98278.84
2023-03-26T11:29:48.215Z,98275.94
2023-03-26T11:30:55.965Z,98274.63
2023-03-26T11:32:06.910Z,98277.13
2023-03-26T11:33:13.976Z,98288.63
2023-03-26T11:34:20.860Z,98279.16
2023-03-26T11:35:39.369Z,98265.25
2023-03-26T11:36:50.173Z,98280.53
2023-03-26T11:37:59.186Z,98270.69
2023-03-26T11:39:04.732Z,98272.22
2023-03-26T11:40:15.825Z,98275.59
2023-03-26T11:41:23.496Z,98274.44
2023-03-26T11:42:25.854Z,98269.84
2023-03-26T11:43:36.943Z,98267.47
2023-03-26T11:44:42.989Z,98266.38
2023-03-26T11:45:48.191Z,98269.06
2023-03-26T11:46:58.915Z,98259.47
2023-03-26T11:48:23.210Z,98255.66
2023-03-26T11:49:26.527Z,98263.56
2023-03-26T11:50:32.772Z,98261.88
2023-03-26T11:51:36.873Z,98249.63
2023-03-26T11:52:38.591Z,98260.59
2023-03-26T11:53:40.349Z,98253.19
2023-03-26T11:54:43.517Z,98251.63
2023-03-26T11:55:58.082Z,98237.84
2023-03-26T11:57:21.328Z,98248.44
2023-03-26T11:58:52.173Z,98247.44
2023-03-26T12:00:16.346Z,98251.75
2023-03-26T12:01:30.069Z,98240.63
2023-03-26T12:02:39.409Z,98249.84
2023-03-26T12:03:43.362Z,98251.78
2023-03-26T12:04:55.309Z,98247.50
2023-03-26T12:05:59.640Z,98245.22
2023-03-26T12:07:18.354Z,98249.97
2023-03-26T12:08:31.328Z,98240.53
2023-03-26T12:09:33.184Z,98239.44
2023-03-26T12:10:38.220Z,98245.88
2023-03-26T12:11:41.527Z,98244.94
2023-03-26T12:12:46.730Z,98241.25
2023-03-26T12:13:56.675Z,98243.78
2023-03-26T12:14:59.366Z,98245.75
2023-03-26T12:16:09.632Z,98246.31
2023-03-26T12:17:31.416Z,98241.13
2023-03-26T12:18:34.312Z,98231.75
2023-03-26T12:19:39.873Z,98226.19
2023-03-26T12:20:42.689Z,98239.84
2023-03-26T12:21:50.034Z,98235.88
2023-03-26T12:22:59.586Z,98225.06
2023-03-26T12:24:04.898Z,98224.09
2023-03-26T12:25:17.337Z,98228.91
2023-03-26T12:26:21.420Z,98229.38
2023-03-26T12:27:31.008Z,98232.38
2023-03-26T12:28:32.985Z,98229.22
2023-03-26T12:29:35.016Z,98234.16
2023-03-26T12:30:39.615Z,98222.38
2023-03-26T12:31:56.440Z,98219.31
2023-03-26T12:33:04.004Z,98228.81
2023-03-26T12:34:18.002Z,98226.75
2023-03-26T12:35:29.411Z,98225.13
2023-03-26T12:36:33.465Z,98218.28
2023-03-26T12:37:43.308Z,98218.47
2023-03-26T12:38:46.182Z,98215.03
2023-03-26T12:40:26.064Z,98215.16
2023-03-26T12:44:42.631Z,98205.59
2023-03-26T12:44:46.779Z,98202.41
2023-03-26T12:44:54.770Z,98197.38
2023-03-26T12:47:46.232Z,98194.63
2023-03-26T12:48:01.409Z,98199.19
2023-03-26T12:48:55.219Z,98184.22
2023-03-26T12:49:58.213Z,98190.94
2023-03-26T12:51:32.603Z,98193.44
2023-03-26T12:52:48.528Z,98191.81
2023-03-26T12:53:50.170Z,98182.69
2023-03-26T12:55:38.223Z,98178.59
2023-03-26T12:56:47.715Z,98173.56
2023-03-26T12:58:19.937Z,98168.47
2023-03-26T13:00:07.776Z,98175.47
2023-03-26T13:01:22.429Z,98179.06
2023-03-26T13:02:48.626Z,98181.19
2023-03-26T13:04:14.990Z,98183.22
2023-03-26T13:05:31.055Z,98187.56
2023-03-26T13:07:00.432Z,98175.19
2023-03-26T13:08:41.714Z,98174.28
2023-03-26T13:10:08.638Z,98157.66
2023-03-26T13:11:47.222Z,98167.19
2023-03-26T13:13:15.402Z,98167.84
2023-03-26T13:14:32.364Z,98164.09
2023-03-26T13:15:52.647Z,98152.56
2023-03-26T13:17:22.987Z,98154.00
2023-03-26T13:18:35.734Z,98154.50
2023-03-26T13:19:44.172Z,98166.47
2023-03-26T13:20:51.621Z,98156.31
2023-03-26T13:22:02.561Z,98159.47
2023-03-26T13:23:28.667Z,98148.44
2023-03-26T13:24:42.430Z,98151.53
2023-03-26T13:25:53.906Z,98143.66
2023-03-26T13:27:14.914Z,98144.75
2023-03-26T13:28:40.585Z,98148.84
2023-03-26T13:30:02.600Z,98137.63
2023-03-26T13:31:17.762Z,98128.44
2023-03-26T13:32:31.233Z,98132.59
2023-03-26T13:33:57.855Z,98126.66
2023-03-26T13:35:13.609Z,98130.81
2023-03-26T13:36:39.292Z,98133.84
2023-03-26T13:37:53.504Z,98132.72
2023-03-26T13:39:08.187Z,98133.66
2023-03-26T13:40:25.433Z,98132.56
2023-03-26T13:41:48.831Z,98134.16
2023-03-26T13:42:59.249Z,98134.72
2023-03-26T13:44:16.004Z,98138.16
2023-03-26T13:45:33.963Z,98135.03
2023-03-26T13:46:43.276Z,98119.34
2023-03-26T13:47:49.966Z,98127.13
2023-03-26T13:49:15.552Z,98124.06
2023-03-26T13:50:39.436Z,98130.13
2023-03-26T13:51:49.199Z,98124.56
2023-03-26T13:52:58.648Z,98134.63
2023-03-26T13:54:30.728Z,98131.31
2023-03-26T13:55:38.692Z,98128.34
2023-03-26T13:56:46.564Z,98122.16
2023-03-26T13:58:08.857Z,98130.56
2023-03-26T13:59:21.149Z,98124.53
2023-03-26T14:00:33.974Z,98131.84
2023-03-26T14:01:43.874Z,98129.47
2023-03-26T14:02:53.416Z,98120.78
2023-03-26T14:04:09.394Z,98119.78
2023-03-26T14:05:20.459Z,98128.03
2023-03-26T14:06:27.956Z,98134.47
2023-03-26T14:07:55.015Z,98129.53
2023-03-26T14:09:04.990Z,98129.66
2023-03-26T14:10:19.970Z,98130.38
2023-03-26T14:11:42.600Z,98134.84
2023-03-26T14:13:10.889Z,98127.84
2023-03-26T14:14:19.601Z,98133.56
2023-03-26T14:15:37.725Z,98136.75
2023-03-26T14:16:48.226Z,98133.94
2023-03-26T14:18:06.190Z,98132.81
2023-03-26T14:19:26.059Z,98130.47
2023-03-26T14:20:58.616Z,98134.25
2023-03-26T14:22:12.572Z,98126.97
2023-03-26T14:23:37.507Z,98134.13
2023-03-26T14:24:51.629Z,98134.59
2023-03-26T14:26:10.635Z,98135.38
2023-03-26T14:27:24.686Z,98132.06
2023-03-26T14:28:41.581Z,98122.69
2023-03-26T14:30:14.306Z,98128.56
2023-03-26T14:31:30.589Z,98121.25
2023-03-26T14:32:50.407Z,98128.53
2023-03-26T14:34:29.341Z,98121.19
2023-03-26T14:35:37.635Z,98123.84
2023-03-26T14:36:59.222Z,98123.53
2023-03-26T14:38:12.472Z,98128.06
2023-03-26T14:39:23.710Z,98119.31
2023-03-26T14:40:43.472Z,98127.59
2023-03-26T14:42:12.420Z,98126.13
2023-03-26T14:43:58.490Z,98123.78
2023-03-26T14:45:00.401Z,98124.44
2023-03-26T14:46:12.139Z,98118.06
2023-03-26T14:47:17.080Z,98118.63
2023-03-26T14:48:24.588Z,98122.91
2023-03-26T14:49:53.744Z,98121.63
2023-03-26T14:51:32.705Z,98119.41
2023-03-26T14:52:49.768Z,98119.22
2023-03-26T14:53:57.105Z,98115.16
2023-03-26T14:55:03.823Z,98123.84
2023-03-26T14:56:15.772Z,98111.25
2023-03-26T14:57:26.431Z,98110.84
2023-03-26T14:59:05.410Z,98110.84
2023-03-26T15:00:42.905Z,98092.63
2023-03-26T15:02:21.740Z,98101.66
2023-03-26T15:04:06.751Z,98094.22
2023-03-26T15:05:52.152Z,98090.38
2023-03-26T15:07:02.867Z,98092.56
2023-03-26T15:08:35.336Z,98091.34
2023-03-26T15:09:58.106Z,98090.84
2023-03-26T15:11:21.013Z,98094.16
2023-03-26T15:13:03.631Z,98097.16
2023-03-26T15:14:37.350Z,98092.88
2023-03-26T15:15:41.808Z,98096.94
2023-03-26T15:17:09.854Z,98093.75
2023-03-26T15:18:23.496Z,98090.56
2023-03-26T15:19:49.695Z,98087.19
2023-03-26T15:21:29.050Z,98085.50
2023-03-26T15:23:07.903Z,98084.22
2023-03-26T15:24:53.324Z,98091.38
2023-03-26T15:26:31.107Z,98086.50
2023-03-26T15:28:12.306Z,98078.84
2023-03-26T15:29:35.616Z,98088.25
2023-03-26T15:31:06.742Z,98090.53
2023-03-26T15:32:44.608Z,98080.28
2023-03-26T15:34:04.550Z,98079.81
2023-03-26T15:35:09.903Z,98089.97
2023-03-26T15:36:32.786Z,98082.69
2023-03-26T15:37:46.575Z,98087.19
2023-03-26T15:38:57.098Z,98087.06
2023-03-26T15:40:15.110Z,98088.16